createdAt,value
2023-03-23T15:59:49.740Z,99519.34
2023-03-23T16:04:52.195Z,99524.05
2023-03-23T16:09:53.777Z,99529.40
2023-03-23T16:14:55.284Z,99538.05
2023-03-23T16:19:57.000Z,99541.08
2023-03-23T16:24:58.459Z,99547.25
2023-03-23T16:30:04.476Z,99550.55
2023-03-23T16:35:07.336Z,99555.55
2023-03-23T16:40:12.316Z,99553.71
2023-03-23T16:45:15.409Z,99552.73
2023-03-23T16:50:18.805Z,99554.46
2023-03-23T16:55:20.477Z,99558.73
2023-03-23T17:00:24.950Z,99565.95
2023-03-23T17:05:29.225Z,99569.66
2023-03-23T17:10:31.563Z,99577.67
2023-03-23T17:15:33.392Z,99589.67
2023-03-23T17:20:35.569Z,99585.98
2023-03-23T17:25:37.119Z,99591.02
2023-03-23T17:30:42.509Z,99587.60
2023-03-23T17:35:46.434Z,99578.89
2023-03-23T17:40:48.604Z,99582.35
2023-03-23T17:45:50.496Z,99586.58
2023-03-23T17:50:57.551Z,99587.13
2023-03-23T17:55:59.272Z,99593.64
2023-03-23T18:01:01.666Z,99606.27
2023-03-23T18:06:07.556Z,99621.96
2023-03-23T18:11:09.481Z,99635.45
2023-03-23T18:16:11.581Z,99646.86
2023-03-23T18:21:13.125Z,99654.86
2023-03-23T18:26:16.662Z,99663.38
2023-03-23T18:31:20.243Z,99671.86
2023-03-23T18:36:24.943Z,99673.08
2023-03-23T18:41:26.976Z,99670.73
2023-03-23T18:46:29.049Z,99670.63
2023-03-23T18:51:31.248Z,99676.25
2023-03-23T18:56:34.574Z,99677.15
2023-03-23T19:01:36.507Z,99681.50
2023-03-23T19:06:38.184Z,99682.52
2023-03-23T19:11:39.879Z,99678.89
2023-03-23T19:16:42.095Z,99677.39
2023-03-23T19:21:46.982Z,99674.45
2023-03-23T19:26:49.007Z,99671.39
2023-03-23T19:31:50.855Z,99681.52
2023-03-23T19:36:55.085Z,99683.35
2023-03-23T19:42:01.399Z,99687.63
2023-03-23T19:47:03.126Z,99684.49
2023-03-23T19:52:12.155Z,99686.02
2023-03-23T19:57:14.437Z,99701.13
2023-03-23T20:02:16.446Z,99699.11
2023-03-23T20:07:18.108Z,99691.71
2023-03-23T20:12:22.655Z,99680.33
2023-03-23T20:17:24.720Z,99682.40
2023-03-23T20:22:26.347Z,99676.80
2023-03-23T20:27:28.087Z,99669.48
2023-03-23T20:32:37.215Z,99665.30
2023-03-23T20:37:39.928Z,99674.15
2023-03-23T20:42:44.079Z,99678.95
2023-03-23T20:47:45.803Z,99677.88
2023-03-23T20:52:48.069Z,99664.83
2023-03-23T20:57:50.779Z,99661.74
2023-03-23T21:02:54.210Z,99660.83
2023-03-23T21:07:58.020Z,99664.42
2023-03-23T21:13:00.171Z,99664.50
2023-03-23T21:18:02.499Z,99653.40
2023-03-23T21:23:07.792Z,99653.30
2023-03-23T21:28:09.474Z,99647.00
2023-03-23T21:33:13.431Z,99654.89
2023-03-23T21:38:14.915Z,99646.24
2023-03-23T21:43:17.013Z,99651.23
2023-03-23T21:48:18.515Z,99637.08
2023-03-23T21:53:20.819Z,99639.05
2023-03-23T21:58:27.479Z,99637.46
2023-03-23T22:03:32.905Z,99643.13
2023-03-23T22:08:36.446Z,99650.66
2023-03-23T22:13:39.735Z,99657.39
2023-03-23T22:18:43.339Z,99660.41
2023-03-23T22:23:46.345Z,99659.09
2023-03-23T22:28:49.568Z,99663.73
2023-03-23T22:33:55.068Z,99671.28
2023-03-23T22:38:56.731Z,99665.55
2023-03-23T22:43:58.689Z,99669.45
2023-03-23T22:49:00.198Z,99672.20
2023-03-23T22:54:01.815Z,99676.58
2023-03-23T22:59:05.434Z,99680.52
2023-03-23T23:04:07.253Z,99677.50
2023-03-23T23:09:09.060Z,99678.81
2023-03-23T23:14:13.563Z,99680.54
2023-03-23T23:19:16.037Z,99681.19
2023-03-23T23:24:18.027Z,99684.06
2023-03-23T23:29:19.724Z,99694.31
2023-03-23T23:34:22.279Z,99695.75
2023-03-23T23:39:23.813Z,99694.91
2023-03-23T23:44:25.616Z,99695.79
2023-03-23T23:49:29.964Z,99701.52
2023-03-23T23:54:31.741Z,99700.98
2023-03-23T23:59:33.316Z,99703.59
